sensor_id;sensor_type;location;lat;lon;timestamp;P1;durP1;ratioP1;P2;durP2;ratioP2
45236;SDS011;30973;51.442;3.580;2022-07-19T00:00:56;9.00;;;4.88;;
45236;SDS011;30973;51.442;3.580;2022-07-19T00:03:23;10.32;;;4.85;;
45236;SDS011;30973;51.442;3.580;2022-07-19T00:05:51;9.23;;;4.53;;
45236;SDS011;30973;51.442;3.580;2022-07-19T00:08:18;8.63;;;4.70;;
45236;SDS011;30973;51.442;3.580;2022-07-19T00:10:45;8.20;;;4.88;;
45236;SDS011;30973;51.442;3.580;2022-07-19T00:15:48;7.70;;;4.68;;
45236;SDS011;30973;51.442;3.580;2022-07-19T00:18:15;10.00;;;5.18;;
45236;SDS011;30973;51.442;3.580;2022-07-19T00:20:43;8.20;;;4.72;;
45236;SDS011;30973;51.442;3.580;2022-07-19T00:23:12;11.70;;;5.25;;
45236;SDS011;30973;51.442;3.580;2022-07-19T00:25:40;9.27;;;4.45;;
45236;SDS011;30973;51.442;3.580;2022-07-19T00:28:07;7.68;;;4.25;;
45236;SDS011;30973;51.442;3.580;2022-07-19T00:30:34;8.52;;;4.30;;
45236;SDS011;30973;51.442;3.580;2022-07-19T00:33:02;7.57;;;4.60;;
45236;SDS011;30973;51.442;3.580;2022-07-19T00:35:35;9.82;;;5.07;;
45236;SDS011;30973;51.442;3.580;2022-07-19T00:38:09;12.27;;;5.22;;
45236;SDS011;30973;51.442;3.580;2022-07-19T00:40:38;7.45;;;4.32;;
45236;SDS011;30973;51.442;3.580;2022-07-19T00:43:08;10.63;;;4.75;;
45236;SDS011;30973;51.442;3.580;2022-07-19T00:45:36;10.20;;;4.47;;
45236;SDS011;30973;51.442;3.580;2022-07-19T00:48:04;10.27;;;5.03;;
45236;SDS011;30973;51.442;3.580;2022-07-19T00:50:32;7.63;;;4.30;;
45236;SDS011;30973;51.442;3.580;2022-07-19T00:53:00;7.20;;;4.65;;
45236;SDS011;30973;51.442;3.580;2022-07-19T00:55:30;6.43;;;4.53;;
45236;SDS011;30973;51.442;3.580;2022-07-19T00:57:59;8.65;;;4.55;;
45236;SDS011;30973;51.442;3.580;2022-07-19T01:00:27;4.85;;;4.13;;
45236;SDS011;30973;51.442;3.580;2022-07-19T01:02:55;12.25;;;4.38;;
45236;SDS011;30973;51.442;3.580;2022-07-19T01:05:23;9.43;;;4.65;;
45236;SDS011;30973;51.442;3.580;2022-07-19T01:07:55;9.25;;;4.72;;
45236;SDS011;30973;51.442;3.580;2022-07-19T01:10:22;7.63;;;4.38;;
45236;SDS011;30973;51.442;3.580;2022-07-19T01:12:51;8.98;;;4.55;;
45236;SDS011;30973;51.442;3.580;2022-07-19T01:15:20;7.45;;;4.55;;
45236;SDS011;30973;51.442;3.580;2022-07-19T01:17:49;12.32;;;4.97;;
45236;SDS011;30973;51.442;3.580;2022-07-19T01:20:17;7.47;;;4.75;;
45236;SDS011;30973;51.442;3.580;2022-07-19T01:22:44;8.23;;;4.50;;
45236;SDS011;30973;51.442;3.580;2022-07-19T01:25:13;7.50;;;4.30;;
45236;SDS011;30973;51.442;3.580;2022-07-19T01:27:43;8.73;;;4.97;;
45236;SDS011;30973;51.442;3.580;2022-07-19T01:30:11;9.52;;;4.80;;
45236;SDS011;30973;51.442;3.580;2022-07-19T01:32:40;7.72;;;4.82;;
45236;SDS011;30973;51.442;3.580;2022-07-19T01:35:07;9.55;;;4.13;;
45236;SDS011;30973;51.442;3.580;2022-07-19T01:37:35;8.88;;;4.85;;
45236;SDS011;30973;51.442;3.580;2022-07-19T01:40:04;8.27;;;5.45;;
45236;SDS011;30973;51.442;3.580;2022-07-19T01:42:32;8.82;;;4.55;;
45236;SDS011;30973;51.442;3.580;2022-07-19T01:45:00;8.10;;;5.10;;
45236;SDS011;30973;51.442;3.580;2022-07-19T01:47:27;7.85;;;4.57;;
45236;SDS011;30973;51.442;3.580;2022-07-19T01:49:55;9.85;;;4.68;;
45236;SDS011;30973;51.442;3.580;2022-07-19T01:52:23;8.00;;;4.47;;
45236;SDS011;30973;51.442;3.580;2022-07-19T01:54:50;6.70;;;4.75;;
45236;SDS011;30973;51.442;3.580;2022-07-19T01:57:18;8.57;;;4.43;;
45236;SDS011;30973;51.442;3.580;2022-07-19T01:59:46;7.38;;;4.97;;
45236;SDS011;30973;51.442;3.580;2022-07-19T02:02:14;8.82;;;5.60;;
45236;SDS011;30973;51.442;3.580;2022-07-19T02:04:41;8.98;;;5.00;;
45236;SDS011;30973;51.442;3.580;2022-07-19T02:07:09;5.90;;;4.90;;
45236;SDS011;30973;51.442;3.580;2022-07-19T02:09:37;8.57;;;5.20;;
45236;SDS011;30973;51.442;3.580;2022-07-19T02:12:05;7.97;;;5.30;;
45236;SDS011;30973;51.442;3.580;2022-07-19T02:14:33;8.23;;;5.22;;
45236;SDS011;30973;51.442;3.580;2022-07-19T02:17:00;7.20;;;5.10;;
45236;SDS011;30973;51.442;3.580;2022-07-19T02:19:28;8.38;;;5.35;;
45236;SDS011;30973;51.442;3.580;2022-07-19T02:21:56;9.07;;;5.20;;
45236;SDS011;30973;51.442;3.580;2022-07-19T02:24:24;8.98;;;4.95;;
45236;SDS011;30973;51.442;3.580;2022-07-19T02:26:52;7.78;;;5.13;;
45236;SDS011;30973;51.442;3.580;2022-07-19T02:29:19;7.95;;;5.35;;
45236;SDS011;30973;51.442;3.580;2022-07-19T02:31:47;13.90;;;5.40;;
45236;SDS011;30973;51.442;3.580;2022-07-19T02:34:15;9.23;;;5.35;;
45236;SDS011;30973;51.442;3.580;2022-07-19T02:36:42;10.63;;;5.53;;
45236;SDS011;30973;51.442;3.580;2022-07-19T02:39:10;7.30;;;5.13;;
45236;SDS011;30973;51.442;3.580;2022-07-19T02:41:38;7.07;;;5.55;;
45236;SDS011;30973;51.442;3.580;2022-07-19T02:44:05;7.95;;;4.90;;
45236;SDS011;30973;51.442;3.580;2022-07-19T02:46:33;7.53;;;5.28;;
45236;SDS011;30973;51.442;3.580;2022-07-19T02:49:01;6.32;;;4.80;;
45236;SDS011;30973;51.442;3.580;2022-07-19T02:51:29;6.78;;;4.80;;
45236;SDS011;30973;51.442;3.580;2022-07-19T02:53:57;8.52;;;4.70;;
45236;SDS011;30973;51.442;3.580;2022-07-19T02:56:25;6.18;;;4.65;;
45236;SDS011;30973;51.442;3.580;2022-07-19T02:58:53;7.50;;;4.60;;
45236;SDS011;30973;51.442;3.580;2022-07-19T03:01:20;7.03;;;4.60;;
45236;SDS011;30973;51.442;3.580;2022-07-19T03:03:48;6.45;;;4.50;;
45236;SDS011;30973;51.442;3.580;2022-07-19T03:06:17;6.60;;;4.45;;
45236;SDS011;30973;51.442;3.580;2022-07-19T03:08:46;6.93;;;4.45;;
45236;SDS011;30973;51.442;3.580;2022-07-19T03:11:14;8.05;;;4.70;;
45236;SDS011;30973;51.442;3.580;2022-07-19T03:13:41;6.95;;;4.00;;
45236;SDS011;30973;51.442;3.580;2022-07-19T03:16:09;6.75;;;4.30;;
45236;SDS011;30973;51.442;3.580;2022-07-19T03:18:37;7.65;;;4.57;;
45236;SDS011;30973;51.442;3.580;2022-07-19T03:21:05;10.60;;;4.38;;
45236;SDS011;30973;51.442;3.580;2022-07-19T03:23:33;7.57;;;4.38;;
45236;SDS011;30973;51.442;3.580;2022-07-19T03:26:01;9.40;;;5.13;;
45236;SDS011;30973;51.442;3.580;2022-07-19T03:28:28;8.65;;;4.53;;
45236;SDS011;30973;51.442;3.580;2022-07-19T03:30:56;10.18;;;5.25;;
45236;SDS011;30973;51.442;3.580;2022-07-19T03:33:24;7.85;;;4.78;;
45236;SDS011;30973;51.442;3.580;2022-07-19T03:35:51;8.80;;;4.93;;
45236;SDS011;30973;51.442;3.580;2022-07-19T03:38:19;8.73;;;4.80;;
45236;SDS011;30973;51.442;3.580;2022-07-19T03:40:47;7.03;;;4.50;;
45236;SDS011;30973;51.442;3.580;2022-07-19T03:43:15;8.40;;;4.82;;
45236;SDS011;30973;51.442;3.580;2022-07-19T03:45:43;7.95;;;4.75;;
45236;SDS011;30973;51.442;3.580;2022-07-19T03:48:12;8.18;;;4.70;;
45236;SDS011;30973;51.442;3.580;2022-07-19T03:50:40;7.03;;;4.75;;
45236;SDS011;30973;51.442;3.580;2022-07-19T03:53:07;10.80;;;5.15;;
45236;SDS011;30973;51.442;3.580;2022-07-19T03:55:35;7.97;;;5.47;;
45236;SDS011;30973;51.442;3.580;2022-07-19T03:58:03;10.13;;;5.25;;
45236;SDS011;30973;51.442;3.580;2022-07-19T04:00:31;9.85;;;4.97;;
45236;SDS011;30973;51.442;3.580;2022-07-19T04:02:59;9.40;;;4.90;;
45236;SDS011;30973;51.442;3.580;2022-07-19T04:05:27;7.88;;;5.00;;
45236;SDS011;30973;51.442;3.580;2022-07-19T04:07:54;8.77;;;4.85;;
45236;SDS011;30973;51.442;3.580;2022-07-19T04:10:22;6.15;;;4.95;;
45236;SDS011;30973;51.442;3.580;2022-07-19T04:12:50;9.77;;;5.10;;
45236;SDS011;30973;51.442;3.580;2022-07-19T04:15:17;7.97;;;5.00;;
45236;SDS011;30973;51.442;3.580;2022-07-19T04:17:45;8.50;;;4.75;;
45236;SDS011;30973;51.442;3.580;2022-07-19T04:20:12;5.63;;;4.30;;
45236;SDS011;30973;51.442;3.580;2022-07-19T04:22:41;10.02;;;5.40;;
45236;SDS011;30973;51.442;3.580;2022-07-19T04:25:12;8.32;;;5.28;;
45236;SDS011;30973;51.442;3.580;2022-07-19T04:27:40;8.57;;;4.90;;
45236;SDS011;30973;51.442;3.580;2022-07-19T04:30:08;10.60;;;4.82;;
45236;SDS011;30973;51.442;3.580;2022-07-19T04:32:36;10.25;;;4.57;;
45236;SDS011;30973;51.442;3.580;2022-07-19T04:35:04;8.88;;;4.43;;
45236;SDS011;30973;51.442;3.580;2022-07-19T04:37:33;7.00;;;4.30;;
45236;SDS011;30973;51.442;3.580;2022-07-19T04:40:01;7.88;;;4.78;;
45236;SDS011;30973;51.442;3.580;2022-07-19T04:42:28;6.80;;;4.70;;
45236;SDS011;30973;51.442;3.580;2022-07-19T04:44:56;7.47;;;4.38;;
45236;SDS011;30973;51.442;3.580;2022-07-19T04:47:24;8.52;;;4.30;;
45236;SDS011;30973;51.442;3.580;2022-07-19T04:49:51;6.20;;;3.97;;
45236;SDS011;30973;51.442;3.580;2022-07-19T04:52:19;8.13;;;4.10;;
45236;SDS011;30973;51.442;3.580;2022-07-19T04:54:47;8.43;;;4.30;;
45236;SDS011;30973;51.442;3.580;2022-07-19T04:57:15;7.97;;;4.07;;
45236;SDS011;30973;51.442;3.580;2022-07-19T04:59:42;7.22;;;4.35;;
45236;SDS011;30973;51.442;3.580;2022-07-19T05:02:10;5.20;;;3.70;;
45236;SDS011;30973;51.442;3.580;2022-07-19T05:04:40;7.15;;;3.60;;
45236;SDS011;30973;51.442;3.580;2022-07-19T05:07:08;6.22;;;3.65;;
45236;SDS011;30973;51.442;3.580;2022-07-19T05:09:35;7.93;;;4.13;;
45236;SDS011;30973;51.442;3.580;2022-07-19T05:12:03;4.93;;;3.75;;
45236;SDS011;30973;51.442;3.580;2022-07-19T05:14:33;7.55;;;4.18;;
45236;SDS011;30973;51.442;3.580;2022-07-19T05:17:01;7.45;;;4.18;;
45236;SDS011;30973;51.442;3.580;2022-07-19T05:19:29;8.15;;;3.80;;
45236;SDS011;30973;51.442;3.580;2022-07-19T05:21:56;8.43;;;4.03;;
45236;SDS011;30973;51.442;3.580;2022-07-19T05:24:24;8.98;;;4.10;;
45236;SDS011;30973;51.442;3.580;2022-07-19T05:26:51;6.32;;;3.97;;
45236;SDS011;30973;51.442;3.580;2022-07-19T05:29:19;9.65;;;4.43;;
45236;SDS011;30973;51.442;3.580;2022-07-19T05:31:50;9.30;;;4.63;;
45236;SDS011;30973;51.442;3.580;2022-07-19T05:34:17;6.45;;;3.88;;
45236;SDS011;30973;51.442;3.580;2022-07-19T05:36:45;7.63;;;4.05;;
45236;SDS011;30973;51.442;3.580;2022-07-19T05:39:13;7.65;;;3.30;;
45236;SDS011;30973;51.442;3.580;2022-07-19T05:42:16;6.65;;;3.35;;
45236;SDS011;30973;51.442;3.580;2022-07-19T05:44:43;7.97;;;3.45;;
45236;SDS011;30973;51.442;3.580;2022-07-19T05:47:11;6.65;;;3.25;;
45236;SDS011;30973;51.442;3.580;2022-07-19T05:49:41;7.43;;;3.90;;
45236;SDS011;30973;51.442;3.580;2022-07-19T05:52:09;7.28;;;3.50;;
45236;SDS011;30973;51.442;3.580;2022-07-19T05:54:37;7.55;;;3.58;;
45236;SDS011;30973;51.442;3.580;2022-07-19T05:57:04;6.68;;;4.03;;
45236;SDS011;30973;51.442;3.580;2022-07-19T05:59:32;8.73;;;3.70;;
45236;SDS011;30973;51.442;3.580;2022-07-19T06:02:02;7.43;;;4.00;;
45236;SDS011;30973;51.442;3.580;2022-07-19T06:04:30;5.45;;;3.72;;
45236;SDS011;30973;51.442;3.580;2022-07-19T06:06:57;9.02;;;4.05;;
45236;SDS011;30973;51.442;3.580;2022-07-19T06:09:25;8.30;;;4.43;;
45236;SDS011;30973;51.442;3.580;2022-07-19T06:11:52;8.10;;;4.30;;
45236;SDS011;30973;51.442;3.580;2022-07-19T06:14:20;8.65;;;4.00;;
45236;SDS011;30973;51.442;3.580;2022-07-19T06:16:47;6.53;;;3.90;;
45236;SDS011;30973;51.442;3.580;2022-07-19T06:19:15;7.65;;;3.85;;
45236;SDS011;30973;51.442;3.580;2022-07-19T06:21:42;7.80;;;4.13;;
45236;SDS011;30973;51.442;3.580;2022-07-19T06:24:09;7.55;;;4.20;;
45236;SDS011;30973;51.442;3.580;2022-07-19T06:26:36;8.30;;;4.30;;
45236;SDS011;30973;51.442;3.580;2022-07-19T06:29:04;8.90;;;4.43;;
45236;SDS011;30973;51.442;3.580;2022-07-19T06:31:31;9.48;;;4.45;;
45236;SDS011;30973;51.442;3.580;2022-07-19T06:33:58;6.75;;;4.03;;
45236;SDS011;30973;51.442;3.580;2022-07-19T06:36:26;7.07;;;3.95;;
45236;SDS011;30973;51.442;3.580;2022-07-19T06:38:53;6.57;;;4.07;;
45236;SDS011;30973;51.442;3.580;2022-07-19T06:41:21;7.32;;;4.25;;
45236;SDS011;30973;51.442;3.580;2022-07-19T06:43:55;7.30;;;5.00;;
45236;SDS011;30973;51.442;3.580;2022-07-19T06:46:23;7.40;;;4.40;;
45236;SDS011;30973;51.442;3.580;2022-07-19T06:48:50;6.35;;;4.38;;
45236;SDS011;30973;51.442;3.580;2022-07-19T06:51:17;9.73;;;4.40;;
45236;SDS011;30973;51.442;3.580;2022-07-19T06:53:44;8.88;;;4.75;;
45236;SDS011;30973;51.442;3.580;2022-07-19T06:56:12;8.00;;;4.57;;
45236;SDS011;30973;51.442;3.580;2022-07-19T06:58:39;6.93;;;4.65;;
45236;SDS011;30973;51.442;3.580;2022-07-19T07:01:08;10.63;;;5.05;;
45236;SDS011;30973;51.442;3.580;2022-07-19T07:03:36;10.55;;;4.57;;
45236;SDS011;30973;51.442;3.580;2022-07-19T07:06:04;7.15;;;4.90;;
45236;SDS011;30973;51.442;3.580;2022-07-19T07:08:31;10.25;;;4.93;;
45236;SDS011;30973;51.442;3.580;2022-07-19T07:10:59;7.75;;;4.80;;
45236;SDS011;30973;51.442;3.580;2022-07-19T07:13:27;8.27;;;5.38;;
45236;SDS011;30973;51.442;3.580;2022-07-19T07:15:54;9.90;;;5.30;;
45236;SDS011;30973;51.442;3.580;2022-07-19T07:18:21;8.35;;;4.63;;
45236;SDS011;30973;51.442;3.580;2022-07-19T07:20:48;8.63;;;4.60;;
45236;SDS011;30973;51.442;3.580;2022-07-19T07:23:15;8.95;;;4.53;;
45236;SDS011;30973;51.442;3.580;2022-07-19T07:25:44;9.00;;;4.82;;
45236;SDS011;30973;51.442;3.580;2022-07-19T07:28:11;9.85;;;4.80;;
45236;SDS011;30973;51.442;3.580;2022-07-19T07:30:38;7.75;;;4.63;;
45236;SDS011;30973;51.442;3.580;2022-07-19T07:33:06;7.95;;;4.75;;
45236;SDS011;30973;51.442;3.580;2022-07-19T07:35:33;13.73;;;5.40;;
45236;SDS011;30973;51.442;3.580;2022-07-19T07:38:00;8.02;;;4.93;;
45236;SDS011;30973;51.442;3.580;2022-07-19T07:40:28;9.40;;;5.15;;
45236;SDS011;30973;51.442;3.580;2022-07-19T07:42:55;8.82;;;4.93;;
45236;SDS011;30973;51.442;3.580;2022-07-19T07:45:22;8.27;;;4.68;;
45236;SDS011;30973;51.442;3.580;2022-07-19T07:47:50;9.35;;;4.75;;
45236;SDS011;30973;51.442;3.580;2022-07-19T07:50:17;10.43;;;4.50;;
45236;SDS011;30973;51.442;3.580;2022-07-19T07:52:44;7.97;;;4.85;;
45236;SDS011;30973;51.442;3.580;2022-07-19T07:55:12;7.75;;;4.68;;
45236;SDS011;30973;51.442;3.580;2022-07-19T07:57:54;8.02;;;3.97;;
45236;SDS011;30973;51.442;3.580;2022-07-19T08:00:21;8.02;;;4.80;;
45236;SDS011;30973;51.442;3.580;2022-07-19T08:02:49;7.88;;;4.07;;
45236;SDS011;30973;51.442;3.580;2022-07-19T08:05:19;9.00;;;3.90;;
45236;SDS011;30973;51.442;3.580;2022-07-19T08:07:50;7.63;;;4.10;;
45236;SDS011;30973;51.442;3.580;2022-07-19T08:10:20;8.35;;;4.13;;
45236;SDS011;30973;51.442;3.580;2022-07-19T08:12:49;8.93;;;3.67;;
45236;SDS011;30973;51.442;3.580;2022-07-19T08:15:18;9.45;;;4.10;;
45236;SDS011;30973;51.442;3.580;2022-07-19T08:17:46;7.88;;;3.58;;
45236;SDS011;30973;51.442;3.580;2022-07-19T08:20:14;7.72;;;3.25;;
45236;SDS011;30973;51.442;3.580;2022-07-19T08:22:41;7.90;;;3.80;;
45236;SDS011;30973;51.442;3.580;2022-07-19T08:25:09;7.93;;;3.88;;
45236;SDS011;30973;51.442;3.580;2022-07-19T08:27:36;6.28;;;3.30;;
45236;SDS011;30973;51.442;3.580;2022-07-19T08:30:03;9.10;;;3.55;;
45236;SDS011;30973;51.442;3.580;2022-07-19T08:32:35;7.60;;;3.50;;
45236;SDS011;30973;51.442;3.580;2022-07-19T08:35:04;7.63;;;3.42;;
45236;SDS011;30973;51.442;3.580;2022-07-19T08:37:32;9.18;;;3.55;;
45236;SDS011;30973;51.442;3.580;2022-07-19T08:39:59;8.68;;;3.78;;
45236;SDS011;30973;51.442;3.580;2022-07-19T08:42:26;7.70;;;3.20;;
45236;SDS011;30973;51.442;3.580;2022-07-19T08:45:02;6.50;;;3.55;;
45236;SDS011;30973;51.442;3.580;2022-07-19T08:47:32;7.22;;;3.30;;
45236;SDS011;30973;51.442;3.580;2022-07-19T08:49:59;8.65;;;3.70;;
45236;SDS011;30973;51.442;3.580;2022-07-19T08:52:28;11.40;;;3.53;;
45236;SDS011;30973;51.442;3.580;2022-07-19T08:54:55;10.00;;;2.92;;
45236;SDS011;30973;51.442;3.580;2022-07-19T08:57:23;7.93;;;3.05;;
45236;SDS011;30973;51.442;3.580;2022-07-19T09:00:09;7.20;;;3.13;;
45236;SDS011;30973;51.442;3.580;2022-07-19T09:02:52;6.82;;;3.10;;
45236;SDS011;30973;51.442;3.580;2022-07-19T09:05:20;7.90;;;3.35;;
45236;SDS011;30973;51.442;3.580;2022-07-19T09:07:59;7.75;;;3.42;;
45236;SDS011;30973;51.442;3.580;2022-07-19T09:10:34;8.60;;;3.35;;
45236;SDS011;30973;51.442;3.580;2022-07-19T09:13:10;8.02;;;3.60;;
45236;SDS011;30973;51.442;3.580;2022-07-19T09:15:46;5.65;;;3.35;;
45236;SDS011;30973;51.442;3.580;2022-07-19T09:18:25;7.15;;;3.42;;
45236;SDS011;30973;51.442;3.580;2022-07-19T09:20:54;7.57;;;3.70;;
45236;SDS011;30973;51.442;3.580;2022-07-19T09:23:23;8.93;;;3.40;;
45236;SDS011;30973;51.442;3.580;2022-07-19T09:28:18;9.20;;;3.30;;
45236;SDS011;30973;51.442;3.580;2022-07-19T09:30:53;8.57;;;3.60;;
45236;SDS011;30973;51.442;3.580;2022-07-19T09:33:27;10.57;;;3.70;;
45236;SDS011;30973;51.442;3.580;2022-07-19T09:36:03;9.48;;;3.50;;
45236;SDS011;30973;51.442;3.580;2022-07-19T09:38:38;8.63;;;3.80;;
45236;SDS011;30973;51.442;3.580;2022-07-19T09:41:10;7.93;;;3.40;;
45236;SDS011;30973;51.442;3.580;2022-07-19T09:51:39;9.55;;;3.83;;
45236;SDS011;30973;51.442;3.580;2022-07-19T09:54:13;10.07;;;3.33;;
45236;SDS011;30973;51.442;3.580;2022-07-19T09:56:42;10.15;;;3.55;;
45236;SDS011;30973;51.442;3.580;2022-07-19T09:59:11;7.82;;;3.42;;
45236;SDS011;30973;51.442;3.580;2022-07-19T10:01:39;8.90;;;3.80;;
45236;SDS011;30973;51.442;3.580;2022-07-19T10:04:10;11.57;;;3.83;;
45236;SDS011;30973;51.442;3.580;2022-07-19T10:06:40;8.82;;;3.65;;
45236;SDS011;30973;51.442;3.580;2022-07-19T10:09:09;11.57;;;3.80;;
45236;SDS011;30973;51.442;3.580;2022-07-19T10:11:38;9.25;;;3.72;;
45236;SDS011;30973;51.442;3.580;2022-07-19T10:14:06;6.75;;;4.03;;
45236;SDS011;30973;51.442;3.580;2022-07-19T10:22:13;9.73;;;3.25;;
45236;SDS011;30973;51.442;3.580;2022-07-19T10:24:44;7.43;;;3.20;;
45236;SDS011;30973;51.442;3.580;2022-07-19T10:27:12;6.55;;;3.10;;
45236;SDS011;30973;51.442;3.580;2022-07-19T10:29:40;8.85;;;3.00;;
45236;SDS011;30973;51.442;3.580;2022-07-19T10:32:11;5.40;;;3.50;;
45236;SDS011;30973;51.442;3.580;2022-07-19T10:34:42;7.93;;;3.20;;
45236;SDS011;30973;51.442;3.580;2022-07-19T10:37:13;8.57;;;3.72;;
45236;SDS011;30973;51.442;3.580;2022-07-19T10:40:00;5.78;;;3.35;;
45236;SDS011;30973;51.442;3.580;2022-07-19T10:42:27;6.18;;;2.95;;
45236;SDS011;30973;51.442;3.580;2022-07-19T10:50:12;6.97;;;3.30;;
45236;SDS011;30973;51.442;3.580;2022-07-19T10:52:45;6.82;;;3.10;;
45236;SDS011;30973;51.442;3.580;2022-07-19T11:00:43;7.72;;;2.88;;
45236;SDS011;30973;51.442;3.580;2022-07-19T11:05:57;5.80;;;3.05;;
45236;SDS011;30973;51.442;3.580;2022-07-19T11:08:37;6.53;;;3.28;;
45236;SDS011;30973;51.442;3.580;2022-07-19T11:11:12;6.90;;;3.08;;
45236;SDS011;30973;51.442;3.580;2022-07-19T11:13:51;7.18;;;2.88;;
45236;SDS011;30973;51.442;3.580;2022-07-19T11:16:20;9.73;;;3.47;;
45236;SDS011;30973;51.442;3.580;2022-07-19T11:21:40;9.00;;;3.40;;
45236;SDS011;30973;51.442;3.580;2022-07-19T11:24:08;6.50;;;3.20;;
45236;SDS011;30973;51.442;3.580;2022-07-19T11:26:37;6.43;;;3.35;;
45236;SDS011;30973;51.442;3.580;2022-07-19T11:29:12;6.47;;;3.47;;
45236;SDS011;30973;51.442;3.580;2022-07-19T11:31:46;6.78;;;3.00;;
45236;SDS011;30973;51.442;3.580;2022-07-19T11:34:17;8.75;;;3.17;;
45236;SDS011;30973;51.442;3.580;2022-07-19T11:36:56;7.97;;;3.55;;
45236;SDS011;30973;51.442;3.580;2022-07-19T11:39:24;5.60;;;2.83;;
45236;SDS011;30973;51.442;3.580;2022-07-19T11:41:51;6.70;;;3.13;;
45236;SDS011;30973;51.442;3.580;2022-07-19T11:44:18;6.28;;;3.10;;
45236;SDS011;30973;51.442;3.580;2022-07-19T11:46:45;8.40;;;3.75;;
45236;SDS011;30973;51.442;3.580;2022-07-19T11:49:13;7.88;;;3.00;;
45236;SDS011;30973;51.442;3.580;2022-07-19T11:51:41;7.75;;;3.10;;
45236;SDS011;30973;51.442;3.580;2022-07-19T11:54:08;6.45;;;3.03;;
45236;SDS011;30973;51.442;3.580;2022-07-19T11:56:37;8.88;;;2.83;;
45236;SDS011;30973;51.442;3.580;2022-07-19T11:59:08;7.57;;;3.20;;
45236;SDS011;30973;51.442;3.580;2022-07-19T12:01:36;6.85;;;3.13;;
45236;SDS011;30973;51.442;3.580;2022-07-19T12:04:09;6.43;;;3.00;;
45236;SDS011;30973;51.442;3.580;2022-07-19T12:06:43;6.20;;;3.20;;
45236;SDS011;30973;51.442;3.580;2022-07-19T12:09:20;6.15;;;2.70;;
45236;SDS011;30973;51.442;3.580;2022-07-19T12:11:53;6.30;;;3.30;;
45236;SDS011;30973;51.442;3.580;2022-07-19T12:14:25;8.30;;;2.95;;
45236;SDS011;30973;51.442;3.580;2022-07-19T12:20:07;8.30;;;3.20;;
45236;SDS011;30973;51.442;3.580;2022-07-19T12:22:55;7.50;;;3.15;;
45236;SDS011;30973;51.442;3.580;2022-07-19T12:25:36;5.97;;;3.15;;
45236;SDS011;30973;51.442;3.580;2022-07-19T12:28:04;8.40;;;3.28;;
45236;SDS011;30973;51.442;3.580;2022-07-19T12:30:32;6.47;;;2.95;;
45236;SDS011;30973;51.442;3.580;2022-07-19T12:33:10;5.47;;;3.03;;
45236;SDS011;30973;51.442;3.580;2022-07-19T12:35:45;5.13;;;3.40;;
45236;SDS011;30973;51.442;3.580;2022-07-19T12:38:14;7.72;;;3.20;;
45236;SDS011;30973;51.442;3.580;2022-07-19T12:40:42;6.45;;;3.10;;
45236;SDS011;30973;51.442;3.580;2022-07-19T12:43:10;8.23;;;3.20;;
45236;SDS011;30973;51.442;3.580;2022-07-19T12:45:46;6.38;;;2.92;;
45236;SDS011;30973;51.442;3.580;2022-07-19T12:48:15;9.15;;;3.20;;
45236;SDS011;30973;51.442;3.580;2022-07-19T12:50:44;7.53;;;3.20;;
45236;SDS011;30973;51.442;3.580;2022-07-19T12:53:15;9.20;;;3.33;;
45236;SDS011;30973;51.442;3.580;2022-07-19T12:55:44;8.77;;;3.30;;
45236;SDS011;30973;51.442;3.580;2022-07-19T12:58:12;6.10;;;3.20;;
45236;SDS011;30973;51.442;3.580;2022-07-19T13:01:01;8.35;;;3.20;;
45236;SDS011;30973;51.442;3.580;2022-07-19T13:03:29;6.05;;;2.85;;
45236;SDS011;30973;51.442;3.580;2022-07-19T13:05:56;9.30;;;3.13;;
45236;SDS011;30973;51.442;3.580;2022-07-19T13:08:26;6.80;;;3.13;;
45236;SDS011;30973;51.442;3.580;2022-07-19T13:10:54;7.68;;;3.10;;
45236;SDS011;30973;51.442;3.580;2022-07-19T13:13:22;7.20;;;3.10;;
45236;SDS011;30973;51.442;3.580;2022-07-19T13:15:50;8.73;;;3.28;;
45236;SDS011;30973;51.442;3.580;2022-07-19T13:18:18;7.13;;;3.13;;
45236;SDS011;30973;51.442;3.580;2022-07-19T13:20:45;6.40;;;3.00;;
45236;SDS011;30973;51.442;3.580;2022-07-19T13:23:13;5.80;;;3.10;;
45236;SDS011;30973;51.442;3.580;2022-07-19T13:25:40;8.75;;;3.20;;
45236;SDS011;30973;51.442;3.580;2022-07-19T13:28:11;11.32;;;3.20;;
45236;SDS011;30973;51.442;3.580;2022-07-19T13:30:39;9.77;;;3.30;;
45236;SDS011;30973;51.442;3.580;2022-07-19T13:33:06;11.77;;;3.58;;
45236;SDS011;30973;51.442;3.580;2022-07-19T13:35:34;11.70;;;3.50;;
45236;SDS011;30973;51.442;3.580;2022-07-19T13:38:02;7.18;;;3.03;;
45236;SDS011;30973;51.442;3.580;2022-07-19T13:40:30;8.18;;;3.60;;
45236;SDS011;30973;51.442;3.580;2022-07-19T13:42:57;8.90;;;3.17;;
45236;SDS011;30973;51.442;3.580;2022-07-19T13:45:24;7.63;;;3.17;;
45236;SDS011;30973;51.442;3.580;2022-07-19T13:47:52;7.18;;;3.10;;
45236;SDS011;30973;51.442;3.580;2022-07-19T13:50:27;8.48;;;3.28;;
45236;SDS011;30973;51.442;3.580;2022-07-19T13:52:55;7.20;;;3.15;;
45236;SDS011;30973;51.442;3.580;2022-07-19T13:55:24;7.82;;;3.03;;
45236;SDS011;30973;51.442;3.580;2022-07-19T13:57:54;8.55;;;3.63;;
45236;SDS011;30973;51.442;3.580;2022-07-19T14:00:21;12.10;;;4.38;;
45236;SDS011;30973;51.442;3.580;2022-07-19T14:02:49;10.48;;;3.88;;
45236;SDS011;30973;51.442;3.580;2022-07-19T14:05:17;7.03;;;3.45;;
45236;SDS011;30973;51.442;3.580;2022-07-19T14:07:44;8.52;;;3.95;;
45236;SDS011;30973;51.442;3.580;2022-07-19T14:10:12;7.70;;;3.50;;
45236;SDS011;30973;51.442;3.580;2022-07-19T14:12:39;10.23;;;3.40;;
45236;SDS011;30973;51.442;3.580;2022-07-19T14:15:07;6.93;;;3.70;;
45236;SDS011;30973;51.442;3.580;2022-07-19T14:17:34;7.65;;;3.30;;
45236;SDS011;30973;51.442;3.580;2022-07-19T14:20:01;6.82;;;3.35;;
45236;SDS011;30973;51.442;3.580;2022-07-19T14:22:31;8.43;;;4.10;;
45236;SDS011;30973;51.442;3.580;2022-07-19T14:24:58;7.00;;;3.50;;
45236;SDS011;30973;51.442;3.580;2022-07-19T14:27:26;5.57;;;3.22;;
45236;SDS011;30973;51.442;3.580;2022-07-19T14:29:53;6.03;;;3.53;;
45236;SDS011;30973;51.442;3.580;2022-07-19T14:32:20;9.27;;;3.90;;
45236;SDS011;30973;51.442;3.580;2022-07-19T14:34:48;5.30;;;3.67;;
45236;SDS011;30973;51.442;3.580;2022-07-19T14:37:17;7.53;;;3.20;;
45236;SDS011;30973;51.442;3.580;2022-07-19T14:39:51;6.43;;;3.28;;
45236;SDS011;30973;51.442;3.580;2022-07-19T14:42:19;7.28;;;3.47;;
45236;SDS011;30973;51.442;3.580;2022-07-19T14:44:46;9.82;;;3.50;;
45236;SDS011;30973;51.442;3.580;2022-07-19T14:47:16;8.52;;;3.63;;
45236;SDS011;30973;51.442;3.580;2022-07-19T14:49:44;6.57;;;3.75;;
45236;SDS011;30973;51.442;3.580;2022-07-19T14:52:12;5.97;;;3.35;;
45236;SDS011;30973;51.442;3.580;2022-07-19T14:54:39;7.63;;;3.25;;
45236;SDS011;30973;51.442;3.580;2022-07-19T14:57:06;9.02;;;3.40;;
45236;SDS011;30973;51.442;3.580;2022-07-19T14:59:34;11.82;;;3.60;;
45236;SDS011;30973;51.442;3.580;2022-07-19T15:02:01;7.10;;;3.50;;
45236;SDS011;30973;51.442;3.580;2022-07-19T15:04:28;8.80;;;3.95;;
45236;SDS011;30973;51.442;3.580;2022-07-19T15:06:55;6.88;;;3.30;;
45236;SDS011;30973;51.442;3.580;2022-07-19T15:09:24;12.13;;;3.65;;
45236;SDS011;30973;51.442;3.580;2022-07-19T15:11:51;10.57;;;3.47;;
45236;SDS011;30973;51.442;3.580;2022-07-19T15:14:18;9.70;;;3.33;;
45236;SDS011;30973;51.442;3.580;2022-07-19T15:16:45;6.35;;;3.53;;
45236;SDS011;30973;51.442;3.580;2022-07-19T15:19:13;5.82;;;3.30;;
45236;SDS011;30973;51.442;3.580;2022-07-19T15:21:41;7.82;;;3.45;;
45236;SDS011;30973;51.442;3.580;2022-07-19T15:24:09;9.55;;;4.35;;
45236;SDS011;30973;51.442;3.580;2022-07-19T15:26:36;8.48;;;3.50;;
45236;SDS011;30973;51.442;3.580;2022-07-19T15:29:03;10.20;;;4.28;;
45236;SDS011;30973;51.442;3.580;2022-07-19T15:31:30;8.98;;;3.40;;
45236;SDS011;30973;51.442;3.580;2022-07-19T15:33:58;9.15;;;3.80;;